createdAt,value
2022-10-02T00:04:02.910Z,1.98
2022-10-02T00:09:17.289Z,2.00
2022-10-02T00:14:24.505Z,2.00
2022-10-02T00:19:28.540Z,2.13
2022-10-02T00:24:42.251Z,2.05
2022-10-02T00:29:52.581Z,2.13
2022-10-02T00:35:54.423Z,2.20
2022-10-02T00:42:04.082Z,2.15
2022-10-02T00:47:22.613Z,2.20
2022-10-02T00:52:51.621Z,1.88
2022-10-02T00:58:15.085Z,2.50
2022-10-02T01:03:24.408Z,2.60
2022-10-02T01:08:29.562Z,2.30
2022-10-02T01:13:34.991Z,2.38
2022-10-02T01:18:38.723Z,2.30
2022-10-02T01:23:51.966Z,2.33
2022-10-02T01:28:57.055Z,2.30
2022-10-02T01:34:01.344Z,2.30
2022-10-02T01:39:05.107Z,2.20
2022-10-02T01:44:10.201Z,2.13
2022-10-02T01:49:40.872Z,2.20
2022-10-02T01:55:01.889Z,2.50
2022-10-02T02:00:11.617Z,2.10
2022-10-02T02:05:35.144Z,2.38
2022-10-02T02:10:50.071Z,2.10
2022-10-02T02:16:03.350Z,2.00
2022-10-02T02:21:14.281Z,2.03
2022-10-02T02:26:19.757Z,2.20
2022-10-02T02:31:34.176Z,2.22
2022-10-02T02:36:43.799Z,2.10
2022-10-02T02:41:54.224Z,2.30
2022-10-02T02:47:06.944Z,2.42
2022-10-02T02:52:18.303Z,2.03
2022-10-02T02:57:31.167Z,2.10
2022-10-02T03:02:36.203Z,2.42
2022-10-02T03:07:39.990Z,2.10
2022-10-02T03:13:01.665Z,2.42
2022-10-02T03:18:35.780Z,2.10
2022-10-02T03:23:58.650Z,2.00
2022-10-02T03:29:09.523Z,2.45
2022-10-02T03:34:15.066Z,2.30
2022-10-02T03:39:26.380Z,2.10
2022-10-02T03:44:30.028Z,2.20
2022-10-02T03:49:34.962Z,2.03
2022-10-02T03:54:38.781Z,2.28
2022-10-02T03:59:50.731Z,2.08
2022-10-02T04:05:03.397Z,2.00
2022-10-02T04:10:31.789Z,2.60
2022-10-02T04:15:59.017Z,2.38
2022-10-02T04:21:14.206Z,2.00
2022-10-02T04:26:24.777Z,1.92
2022-10-02T04:31:29.976Z,2.08
2022-10-02T04:37:05.377Z,2.10
2022-10-02T04:42:30.735Z,2.08
2022-10-02T04:48:21.914Z,2.10
2022-10-02T04:53:58.942Z,2.22
2022-10-02T04:59:34.205Z,1.98
2022-10-02T05:04:59.588Z,2.08
2022-10-02T05:10:28.765Z,2.00
2022-10-02T05:16:01.570Z,1.90
2022-10-02T05:21:27.065Z,2.00
2022-10-02T05:26:58.252Z,1.80
2022-10-02T05:32:30.270Z,2.05
2022-10-02T05:37:59.139Z,2.08
2022-10-02T05:43:15.207Z,2.05
2022-10-02T05:48:25.517Z,2.10
2022-10-02T05:53:37.972Z,2.30
2022-10-02T05:58:53.039Z,1.90
2022-10-02T06:04:04.882Z,1.80
2022-10-02T06:09:19.803Z,2.08
2022-10-02T06:14:32.094Z,2.00
2022-10-02T06:19:44.718Z,1.90
2022-10-02T06:24:54.799Z,1.92
2022-10-02T06:30:06.447Z,1.92
2022-10-02T06:35:16.273Z,1.60
2022-10-02T06:41:04.128Z,1.83
2022-10-02T06:46:24.010Z,1.90
2022-10-02T06:51:42.482Z,1.75
2022-10-02T06:57:16.976Z,1.90
2022-10-02T07:02:51.118Z,1.80
2022-10-02T07:08:06.698Z,1.77
2022-10-02T07:13:27.569Z,1.75
2022-10-02T07:18:50.765Z,1.85
2022-10-02T07:24:05.184Z,1.70
2022-10-02T07:29:31.159Z,1.83
2022-10-02T07:34:48.783Z,2.00
2022-10-02T07:40:19.874Z,1.70
2022-10-02T07:45:33.047Z,1.52
2022-10-02T07:50:56.390Z,1.75
2022-10-02T07:56:01.852Z,1.80
2022-10-02T08:01:15.148Z,1.60
2022-10-02T08:06:20.764Z,1.63
2022-10-02T08:11:30.776Z,1.80
2022-10-02T08:16:41.639Z,1.70
2022-10-02T08:21:52.636Z,1.58
2022-10-02T08:27:02.226Z,1.83
2022-10-02T08:32:12.648Z,1.55
2022-10-02T08:37:34.874Z,1.40
2022-10-02T09:29:02.749Z,1.50
2022-10-02T09:35:07.275Z,1.30
2022-10-02T11:18:38.547Z,0.93
2022-10-02T11:24:08.719Z,1.10
2022-10-02T11:30:06.672Z,1.00
2022-10-02T11:35:30.637Z,1.10
2022-10-02T11:41:03.707Z,1.00
2022-10-02T11:46:38.746Z,1.10
2022-10-02T11:52:21.312Z,1.10
2022-10-02T11:57:48.034Z,1.10
2022-10-02T12:03:01.798Z,1.00
2022-10-02T12:08:18.180Z,0.90
2022-10-02T12:14:01.487Z,0.95
2022-10-02T12:19:26.301Z,0.75
2022-10-02T12:24:59.110Z,0.90
2022-10-02T12:30:10.813Z,1.15
2022-10-02T12:35:41.016Z,0.85
2022-10-02T12:40:56.515Z,1.08
2022-10-02T12:46:35.121Z,0.90
2022-10-02T12:51:55.010Z,1.00
2022-10-02T12:57:51.806Z,0.88
2022-10-02T13:04:20.938Z,0.83
2022-10-02T13:09:50.750Z,0.98
2022-10-02T13:15:25.041Z,0.93
2022-10-02T13:20:42.002Z,1.00
2022-10-02T13:26:05.118Z,0.77
2022-10-02T13:31:26.271Z,0.80
2022-10-02T13:36:52.753Z,0.80
2022-10-02T13:42:20.462Z,0.80
2022-10-02T13:47:42.104Z,0.70
2022-10-02T13:53:12.023Z,0.80
2022-10-02T13:58:46.283Z,0.88
2022-10-02T14:04:23.515Z,0.85
2022-10-02T14:09:49.826Z,0.73
2022-10-02T14:15:22.226Z,0.90
2022-10-02T14:20:41.056Z,0.70
2022-10-02T14:26:03.814Z,0.95
2022-10-02T14:31:37.623Z,0.90
2022-10-02T14:36:52.910Z,1.00
2022-10-02T14:42:25.979Z,1.00
2022-10-02T14:48:02.836Z,1.10
2022-10-02T14:53:32.986Z,1.10
2022-10-02T14:58:56.871Z,1.20
2022-10-02T15:04:29.922Z,1.50
2022-10-02T15:09:50.651Z,1.58
2022-10-02T15:15:11.923Z,2.55
2022-10-02T15:20:31.045Z,2.40
2022-10-02T15:26:04.478Z,2.55
2022-10-02T15:31:24.090Z,2.40
2022-10-02T15:36:51.626Z,2.30
2022-10-02T15:47:35.840Z,2.38
2022-10-02T15:53:03.015Z,2.38
2022-10-02T15:58:31.773Z,1.88
2022-10-02T16:03:47.015Z,2.10
2022-10-02T16:09:28.164Z,2.08
2022-10-02T16:14:59.998Z,2.08
2022-10-02T16:49:34.237Z,1.40
2022-10-02T16:54:50.243Z,1.67
2022-10-02T17:00:03.715Z,1.83
2022-10-02T17:05:25.493Z,1.55
2022-10-02T17:10:52.722Z,1.63
2022-10-02T17:16:04.640Z,1.80
2022-10-02T17:21:21.079Z,1.67
2022-10-02T17:26:36.895Z,1.40
2022-10-02T17:31:53.107Z,1.58
2022-10-02T17:37:25.522Z,1.50
2022-10-02T17:42:47.811Z,1.42
2022-10-02T17:48:32.858Z,1.50
2022-10-02T17:54:19.534Z,1.30
2022-10-02T18:00:02.861Z,1.47
2022-10-02T18:05:29.509Z,1.63
2022-10-02T18:10:47.322Z,1.83
2022-10-02T18:16:14.135Z,1.80
2022-10-02T18:21:33.404Z,2.20
2022-10-02T18:27:09.121Z,2.80
2022-10-02T18:32:47.538Z,2.90
2022-10-02T18:38:24.785Z,3.10
2022-10-02T18:44:19.580Z,3.50
2022-10-02T18:49:56.224Z,3.83
2022-10-02T18:55:25.449Z,3.97
2022-10-02T19:01:03.288Z,4.05
2022-10-02T19:06:18.382Z,4.47
2022-10-02T19:11:29.648Z,4.55
2022-10-02T19:16:33.400Z,4.53
2022-10-02T19:21:40.160Z,4.78
2022-10-02T19:26:48.946Z,4.97
2022-10-02T19:31:53.038Z,4.90
2022-10-02T19:37:05.870Z,5.50
2022-10-02T19:42:16.338Z,5.80
2022-10-02T19:47:30.328Z,5.55
2022-10-02T19:52:46.857Z,5.43
2022-10-02T19:57:54.100Z,5.45
2022-10-02T20:03:01.183Z,5.72
2022-10-02T20:08:15.713Z,5.65
2022-10-02T20:13:27.970Z,5.95
2022-10-02T20:18:32.386Z,5.43
2022-10-02T20:23:41.992Z,5.60
2022-10-02T20:28:52.189Z,5.55
2022-10-02T20:34:00.283Z,5.97
2022-10-02T20:39:12.097Z,5.45
2022-10-02T20:44:15.811Z,8.40
2022-10-02T20:50:13.447Z,9.18
2022-10-02T20:55:28.047Z,9.15
2022-10-02T21:00:50.541Z,8.57
2022-10-02T21:53:58.142Z,7.13
2022-10-02T21:59:31.526Z,7.15
2022-10-02T22:05:43.663Z,6.85
2022-10-02T22:11:05.276Z,6.88
2022-10-02T22:16:29.554Z,6.65
2022-10-02T22:22:04.762Z,6.53
2022-10-02T22:27:37.520Z,6.60
2022-10-02T22:33:12.289Z,6.13
2022-10-02T22:38:25.713Z,6.07
2022-10-02T22:43:38.668Z,6.25
2022-10-02T22:48:50.572Z,5.90
2022-10-02T22:54:05.161Z,6.10
2022-10-02T22:59:18.177Z,5.80
2022-10-02T23:04:33.867Z,5.82
2022-10-02T23:09:49.179Z,5.70
2022-10-02T23:15:16.083Z,5.57
2022-10-02T23:20:30.502Z,5.03
2022-10-02T23:25:44.060Z,4.82
2022-10-02T23:31:03.265Z,5.07
2022-10-02T23:36:25.469Z,5.22
2022-10-02T23:41:40.358Z,4.57
2022-10-02T23:47:22.317Z,4.35
2022-10-02T23:53:06.897Z,4.75
2022-10-02T23:58:39.790Z,4.45
